Port Gamble, Washington
Current Conditions -  °F | °C
As of 4:53 AM on Thursday 30 Oct 2014 (Local Time) from KPAE Reporting Station
Broken Clouds Broken Clouds  
Wind Chill: 57°   Ceiling: 8500
Heat Index: 57°   Visibility: 10mi
Dew Point: 43°   Wind: 12mph
Humidity: 59%   Direction: 110°ESE
Pressure: 29.93"   Gusts: NA
Location:  47.85°N, 122.59°W
Report Text: KPAE 301153Z AUTO 11010KT 10SM BKN085 BKN110 14/06 A2993 RMK AO2 SLP134 T01390061 10139 20117 58024
Loading
Personal Weather Stations






























Interactive Weather Map
Tropical Storm Tracking
New forecast layout! Learn more

10-Day Weather Forecast

Advertisements
Track Severe Weather on mobile